Portada
METAR-TAF:

METAR-TAF

Aeroports :

Luni

Sarzana, Itàlia

latitud: 44-05N, longitud: 009-59E, altitud: 9 m

Observació

L'informe es va fer fa 9 hores i 45 minuts, a les 14:55 UTC
Temperatura 9°C
Humitat 49%
Pressió 1003 hPa
Visibilitat 10 km o més
Escasses núvols a una alçada de 2500 ft

METAR: LIQW 121455Z /////KT 9999 FEW025 09/M01 Q1003

Hora: 01:40 (00:40 UTC)

Pronòstic

L'informe es va fer fa 10 hores i 40 minuts, a les 14:00 UTC
Pronòstic vàlid del 12 a les 15 UTC al 12 a les 24 UTC
Vent 10 kt del Nord
Visibilitat 10 km o més
Escasses núvols a una alçada de 3000 ft

TAF: LIQW 121400Z 1215/1224 35010KT 9999 FEW030

Observacions i pronòstics meteorològics de més de 4000 aeroports (METAR i TAF).

Les estacions disponibles són els punts grocs i vermells al mapa.

Posi el ratolí al punt desitjat per veure el nom de l'estació.

Feu clic per veure les observacions i els pronòstics meteorològics.

Per canviar el mapa: feu clic els botons verds amb una creu de color negre per apropar; al botó verd amb un guió per allunyar la imatge; o en les fletxes verdes per a mapes adjacents.


METAR-TAF: